Terminal Aerodrome Forecast
Issued by NWS Huntsville, AL

Home | Current Version | Previous Version | Text Only | Print | Product List | Glossary On
Versions: 1 2 3 4 5 6 7 8 9 10 11 12 13 14 15
000
FTUS44 KHUN 231120
TAFMSL
TAF
KMSL 231120Z 2312/2412 29010KT P6SM SCT015 OVC025
     FM231700 29010KT P6SM BKN030
     FM232000 29010G16KT P6SM BKN035
     FM232300 24006KT P6SM FEW050
     FM240300 20006KT P6SM SKC=

USA.gov is the U.S. government's official web portal to all federal, state and local government web resources and services.